createdAt,value
2017-10-21T10:30:12.018Z,20.00
2017-10-21T10:31:11.642Z,16.00
2017-10-21T10:32:14.320Z,160.00
2017-10-21T10:33:11.834Z,172.00
2017-10-21T10:34:11.617Z,156.00
2017-10-21T10:35:11.596Z,216.00
2017-10-21T10:36:11.772Z,220.00
2017-10-21T10:37:11.558Z,208.00
2017-10-21T10:38:11.526Z,264.00
2017-10-21T10:39:11.702Z,256.00
2017-10-21T10:40:11.499Z,256.00
2017-10-21T10:41:11.462Z,232.00
2017-10-21T10:42:11.627Z,224.00
2017-10-21T10:43:11.448Z,0.00
2017-10-21T10:44:11.406Z,228.00
2017-10-21T10:45:55.965Z,256.00
2017-10-21T10:46:55.857Z,252.00
2017-10-21T10:48:49.943Z,252.00
2017-10-21T10:49:49.936Z,216.00
2017-10-21T10:51:43.054Z,200.00
2017-10-21T10:52:42.971Z,196.00
2017-10-21T10:54:37.111Z,224.00
2017-10-21T10:55:37.012Z,252.00
2017-10-21T10:56:37.074Z,256.00
2017-10-21T10:57:37.025Z,260.00
2017-10-21T10:58:37.403Z,264.00
2017-10-21T10:59:37.038Z,272.00
2017-10-21T11:00:37.092Z,264.00
2017-10-21T11:01:36.951Z,200.00
2017-10-21T11:02:37.266Z,248.00
2017-10-21T11:03:37.089Z,280.00
2017-10-21T11:04:36.942Z,288.00
2017-10-21T11:05:37.494Z,284.00
2017-10-21T11:06:36.815Z,280.00
2017-10-21T11:07:41.962Z,284.00
2017-10-21T11:08:40.700Z,280.00
2017-10-21T11:09:37.563Z,292.00
2017-10-21T11:10:42.362Z,280.00
2017-10-21T11:11:39.076Z,264.00
2017-10-21T11:12:39.362Z,296.00
2017-10-21T11:13:38.518Z,300.00
2017-10-21T11:14:37.311Z,300.00
2017-10-21T11:15:37.763Z,292.00
2017-10-21T11:16:36.764Z,292.00
2017-10-21T11:17:36.699Z,284.00
2017-10-21T11:18:36.753Z,280.00
2017-10-21T11:19:49.377Z,276.00
2017-10-21T11:20:39.192Z,216.00
2017-10-21T11:21:37.455Z,260.00
2017-10-21T11:22:36.677Z,268.00
2017-10-21T11:23:41.427Z,264.00
2017-10-21T11:24:41.672Z,280.00
2017-10-21T11:25:37.318Z,260.00
2017-10-21T11:26:43.844Z,240.00
2017-10-21T11:27:38.987Z,248.00
2017-10-21T11:28:43.392Z,180.00
2017-10-21T11:29:38.497Z,148.00
2017-10-21T11:30:39.227Z,268.00
2017-10-21T11:31:44.169Z,276.00
2017-10-21T11:32:38.629Z,248.00
2017-10-21T11:33:39.031Z,272.00
2017-10-21T11:34:37.083Z,284.00
2017-10-21T11:35:39.572Z,248.00
2017-10-21T11:36:41.200Z,248.00
2017-10-21T11:37:38.189Z,264.00
2017-10-21T11:38:39.295Z,280.00
2017-10-21T11:39:38.718Z,316.00
2017-10-21T11:41:36.123Z,300.00
2017-10-21T11:42:36.202Z,244.00
2017-10-21T11:43:36.097Z,280.00
2017-10-21T11:44:36.061Z,276.00
2017-10-21T11:45:36.071Z,288.00
2017-10-21T11:46:36.058Z,276.00
2017-10-21T11:47:36.049Z,284.00
2017-10-21T11:48:36.001Z,288.00
2017-10-21T11:49:36.002Z,276.00
2017-10-21T11:50:35.938Z,268.00
2017-10-21T11:51:35.939Z,280.00
2017-10-21T11:52:35.897Z,260.00
2017-10-21T11:53:35.897Z,248.00
2017-10-21T11:54:35.922Z,256.00
2017-10-21T11:55:35.890Z,212.00
2017-10-21T11:56:35.869Z,244.00
2017-10-21T11:57:35.810Z,248.00
2017-10-21T11:58:35.803Z,300.00
